createdAt,value
2018-06-05T00:00:49.352Z,971.95
2018-06-05T00:01:49.296Z,971.96
2018-06-05T00:02:49.209Z,971.92
2018-06-05T00:03:49.138Z,971.93
2018-06-05T00:04:49.068Z,971.93
2018-06-05T00:05:49.009Z,971.90
2018-06-05T00:06:48.924Z,971.93
2018-06-05T00:07:48.854Z,971.91
2018-06-05T00:08:48.782Z,971.91
2018-06-05T00:09:48.712Z,971.93
2018-06-05T00:10:48.646Z,971.92
2018-06-05T00:11:48.570Z,971.96
2018-06-05T00:12:48.497Z,971.95
2018-06-05T00:13:48.456Z,971.94
2018-06-05T00:14:48.364Z,971.94
2018-06-05T00:15:48.280Z,971.94
2018-06-05T00:16:48.212Z,971.94
2018-06-05T00:17:48.139Z,971.89
2018-06-05T00:18:48.073Z,971.93
2018-06-05T00:19:47.996Z,971.85
2018-06-05T00:20:47.925Z,971.92
2018-06-05T00:21:47.853Z,971.92
2018-06-05T00:22:47.782Z,971.90
2018-06-05T00:23:47.710Z,971.93
2018-06-05T00:24:47.637Z,971.89
2018-06-05T00:25:47.564Z,971.91
2018-06-05T00:26:47.498Z,971.92
2018-06-05T00:27:47.422Z,971.90
2018-06-05T00:28:47.354Z,971.93
2018-06-05T00:29:47.282Z,971.92
2018-06-05T00:30:47.213Z,971.91
2018-06-05T00:31:47.138Z,971.89
2018-06-05T00:32:47.076Z,971.88
2018-06-05T00:33:46.994Z,971.89
2018-06-05T00:34:46.923Z,971.88
2018-06-05T00:35:46.852Z,971.91
2018-06-05T00:36:46.784Z,971.89
2018-06-05T00:37:46.712Z,971.90
2018-06-05T00:38:46.638Z,971.90
2018-06-05T00:39:46.566Z,971.90
2018-06-05T00:40:46.496Z,971.88
2018-06-05T00:41:46.424Z,971.90
2018-06-05T00:42:46.354Z,971.88
2018-06-05T00:43:46.280Z,971.93
2018-06-05T00:44:46.206Z,971.91
2018-06-05T00:45:46.135Z,971.90
2018-06-05T00:46:46.064Z,971.94
2018-06-05T00:47:45.994Z,971.91
2018-06-05T00:48:45.920Z,971.94
2018-06-05T00:49:45.852Z,971.93
2018-06-05T00:50:45.778Z,971.89
2018-06-05T00:51:45.703Z,971.89
2018-06-05T00:52:45.634Z,971.90
2018-06-05T00:53:45.564Z,971.91
2018-06-05T00:54:45.492Z,971.92
2018-06-05T00:55:45.419Z,971.92
2018-06-05T00:56:45.350Z,971.91
2018-06-05T00:57:45.287Z,971.94
2018-06-05T00:58:45.205Z,971.93
2018-06-05T00:59:45.133Z,971.89
2018-06-05T01:00:45.058Z,971.91
2018-06-05T01:01:45.010Z,971.93
2018-06-05T01:02:44.923Z,971.95
2018-06-05T01:03:44.844Z,971.94
2018-06-05T01:04:44.774Z,971.92
2018-06-05T01:05:44.702Z,971.91
2018-06-05T01:06:44.632Z,971.93
2018-06-05T01:07:44.558Z,971.91
2018-06-05T01:08:44.488Z,971.92
2018-06-05T01:09:44.417Z,971.91
2018-06-05T01:10:44.343Z,971.92
2018-06-05T01:11:44.274Z,971.92
2018-06-05T01:12:44.203Z,971.94
2018-06-05T01:13:44.133Z,971.94
2018-06-05T01:14:44.057Z,971.96
2018-06-05T01:15:43.987Z,971.94
2018-06-05T01:16:43.916Z,971.95
2018-06-05T01:17:43.843Z,971.98
2018-06-05T01:18:43.788Z,971.95
2018-06-05T01:19:43.698Z,971.97
2018-06-05T01:20:43.628Z,971.99
2018-06-05T01:21:43.565Z,971.89
2018-06-05T01:22:43.484Z,971.95
2018-06-05T01:23:43.412Z,971.89
2018-06-05T01:24:43.340Z,971.93
2018-06-05T01:25:43.269Z,971.90
2018-06-05T01:26:43.198Z,971.97
2018-06-05T01:27:43.137Z,971.96
2018-06-05T01:28:43.056Z,971.98
2018-06-05T01:29:42.981Z,971.93
2018-06-05T01:30:42.908Z,971.95
2018-06-05T01:31:42.838Z,971.96
2018-06-05T01:32:42.767Z,971.95
2018-06-05T01:33:42.694Z,971.98
2018-06-05T01:34:42.622Z,971.99
2018-06-05T01:35:42.550Z,972.01
2018-06-05T01:36:42.480Z,972.00
2018-06-05T01:37:42.406Z,971.99
2018-06-05T01:38:42.336Z,971.98
2018-06-05T01:39:42.262Z,972.01
2018-06-05T01:40:42.190Z,972.02
2018-06-05T01:41:42.141Z,972.04
2018-06-05T01:42:42.046Z,972.04
2018-06-05T01:43:41.973Z,972.03
2018-06-05T01:44:41.905Z,972.04
2018-06-05T01:45:41.834Z,972.05
2018-06-05T01:46:41.758Z,972.01
2018-06-05T01:47:41.688Z,972.07
2018-06-05T01:48:41.618Z,972.02
2018-06-05T01:49:41.543Z,972.01
2018-06-05T01:50:41.471Z,972.02
2018-06-05T01:51:41.400Z,971.99
2018-06-05T01:52:41.344Z,972.04
2018-06-05T01:53:41.260Z,972.01
2018-06-05T01:54:41.183Z,971.99
2018-06-05T01:55:41.111Z,972.05
2018-06-05T01:56:41.038Z,972.04
2018-06-05T01:57:40.967Z,972.09
2018-06-05T01:58:40.900Z,972.06
2018-06-05T01:59:40.821Z,972.02
2018-06-05T02:00:40.753Z,972.05
2018-06-05T02:01:40.680Z,972.04
2018-06-05T02:02:40.608Z,972.07
2018-06-05T02:03:40.539Z,972.08
2018-06-05T02:04:40.473Z,972.07
2018-06-05T02:05:40.390Z,972.05
2018-06-05T02:06:40.320Z,972.02
2018-06-05T02:07:40.246Z,972.04
2018-06-05T02:08:40.173Z,972.05
2018-06-05T02:09:40.102Z,972.06
2018-06-05T02:10:40.032Z,972.05
2018-06-05T02:11:39.959Z,972.05
2018-06-05T02:12:39.886Z,972.06
2018-06-05T02:13:39.815Z,972.07
2018-06-05T02:14:39.740Z,972.10
2018-06-05T02:15:39.682Z,972.14
2018-06-05T02:16:39.595Z,972.15
2018-06-05T02:17:39.524Z,972.18
2018-06-05T02:18:39.471Z,972.14
2018-06-05T02:19:39.381Z,972.18
2018-06-05T02:20:39.309Z,972.16
2018-06-05T02:21:39.244Z,972.15
2018-06-05T02:22:39.165Z,972.11
2018-06-05T02:23:39.093Z,972.11
2018-06-05T02:24:39.019Z,972.08
2018-06-05T02:25:38.949Z,972.10
2018-06-05T02:26:38.876Z,972.11
2018-06-05T02:27:38.817Z,972.08
2018-06-05T02:28:38.730Z,972.09
2018-06-05T02:29:38.658Z,972.08
2018-06-05T02:30:38.585Z,972.09
2018-06-05T02:31:38.511Z,972.12
2018-06-05T02:32:38.439Z,972.14
2018-06-05T02:33:38.371Z,972.13
2018-06-05T02:34:38.302Z,972.16
2018-06-05T02:35:38.226Z,972.16
2018-06-05T02:36:38.151Z,972.19
2018-06-05T02:37:38.087Z,972.19
2018-06-05T02:38:38.006Z,972.20
2018-06-05T02:39:37.949Z,972.17
2018-06-05T02:40:37.865Z,972.23
2018-06-05T02:41:37.789Z,972.23
2018-06-05T02:42:37.715Z,972.23
2018-06-05T02:43:37.642Z,972.22
2018-06-05T02:44:37.570Z,972.25
2018-06-05T02:45:37.500Z,972.24
2018-06-05T02:46:37.430Z,972.22
2018-06-05T02:47:37.353Z,972.23
2018-06-05T02:48:37.279Z,972.25
2018-06-05T02:49:37.212Z,972.19
2018-06-05T02:50:37.140Z,972.22
2018-06-05T02:51:37.066Z,972.20
2018-06-05T02:52:36.990Z,972.22
2018-06-05T02:53:36.916Z,972.22
2018-06-05T02:54:36.845Z,972.23
2018-06-05T02:55:36.777Z,972.20
2018-06-05T02:56:36.707Z,972.20
2018-06-05T02:57:36.627Z,972.23
2018-06-05T02:58:36.553Z,972.23
2018-06-05T02:59:36.481Z,972.26
2018-06-05T03:00:36.446Z,972.27
2018-06-05T03:01:36.348Z,972.27
2018-06-05T03:02:36.261Z,972.30
2018-06-05T03:03:36.196Z,972.32
2018-06-05T03:04:36.119Z,972.33
2018-06-05T03:05:36.046Z,972.32
2018-06-05T03:06:35.972Z,972.35
2018-06-05T03:07:35.898Z,972.36
2018-06-05T03:08:35.825Z,972.37
2018-06-05T03:09:35.754Z,972.38
2018-06-05T03:10:35.685Z,972.40
2018-06-05T03:11:35.611Z,972.38
2018-06-05T03:12:35.537Z,972.40
2018-06-05T03:13:35.466Z,972.42
2018-06-05T03:14:35.392Z,972.41
2018-06-05T03:15:35.322Z,972.43
2018-06-05T03:16:35.249Z,972.44
2018-06-05T03:17:35.173Z,972.45
2018-06-05T03:18:35.101Z,972.47
2018-06-05T03:19:35.028Z,972.45
2018-06-05T03:20:34.968Z,972.44
2018-06-05T03:21:34.889Z,972.44
2018-06-05T03:22:34.811Z,972.43
2018-06-05T03:23:34.738Z,972.45
2018-06-05T03:24:34.665Z,972.46
2018-06-05T03:25:34.598Z,972.47
2018-06-05T03:26:34.519Z,972.47
2018-06-05T03:27:34.448Z,972.47
2018-06-05T03:28:34.373Z,972.46
2018-06-05T03:29:34.301Z,972.48
2018-06-05T03:30:34.235Z,972.52
2018-06-05T03:31:34.162Z,972.49
2018-06-05T03:32:34.085Z,972.49
2018-06-05T03:33:34.011Z,972.50
2018-06-05T03:34:33.938Z,972.50
2018-06-05T03:35:33.868Z,972.51
2018-06-05T03:36:33.796Z,972.48
2018-06-05T03:37:33.722Z,972.49
2018-06-05T03:38:33.655Z,972.54
2018-06-05T03:39:33.576Z,972.55
2018-06-05T03:40:33.505Z,972.54
2018-06-05T03:41:33.433Z,972.52
2018-06-05T03:42:33.358Z,972.55
2018-06-05T03:43:33.288Z,972.54
2018-06-05T03:44:33.217Z,972.54
2018-06-05T03:45:33.164Z,972.54
2018-06-05T03:46:33.067Z,972.54
2018-06-05T03:47:32.996Z,972.54
2018-06-05T03:48:32.924Z,972.57
2018-06-05T03:49:32.854Z,972.58
2018-06-05T03:50:32.778Z,972.55
2018-06-05T03:51:32.708Z,972.56
2018-06-05T03:52:32.634Z,972.58
2018-06-05T03:53:32.562Z,972.57
2018-06-05T03:54:32.488Z,972.62
2018-06-05T03:55:32.417Z,972.59
2018-06-05T03:56:32.351Z,972.62
2018-06-05T03:57:32.277Z,972.60
2018-06-05T03:58:32.197Z,972.63
2018-06-05T03:59:32.168Z,972.63
2018-06-05T04:00:32.056Z,972.60
2018-06-05T04:01:31.982Z,972.61
2018-06-05T04:02:31.909Z,972.63
2018-06-05T04:03:31.872Z,972.62
2018-06-05T04:04:31.768Z,972.59
2018-06-05T04:05:31.692Z,972.61
2018-06-05T04:06:31.621Z,972.61
2018-06-05T04:07:31.574Z,972.55
2018-06-05T04:08:31.475Z,972.62
2018-06-05T04:09:31.402Z,972.59
2018-06-05T04:10:31.331Z,972.62
2018-06-05T04:11:31.258Z,972.60
2018-06-05T04:12:31.188Z,972.61
2018-06-05T04:13:31.113Z,972.61
2018-06-05T04:14:31.041Z,972.65
2018-06-05T04:15:30.968Z,972.67
2018-06-05T04:16:30.898Z,972.63
2018-06-05T04:17:30.826Z,972.64
2018-06-05T04:18:30.752Z,972.65
2018-06-05T04:19:30.685Z,972.63
2018-06-05T04:20:30.672Z,972.65
2018-06-05T04:21:30.546Z,972.72
2018-06-05T04:22:30.465Z,972.68
2018-06-05T04:23:30.392Z,972.68
2018-06-05T04:24:30.323Z,972.68
2018-06-05T04:25:30.247Z,972.69
2018-06-05T04:26:30.171Z,972.67
2018-06-05T04:27:30.103Z,972.66
2018-06-05T04:28:30.057Z,972.64
2018-06-05T04:29:29.957Z,972.63
2018-06-05T04:30:29.884Z,972.64
2018-06-05T04:31:29.818Z,972.66
2018-06-05T04:32:29.740Z,972.67
2018-06-05T04:33:29.668Z,972.67
2018-06-05T04:34:29.602Z,972.66
2018-06-05T04:35:29.522Z,972.67
2018-06-05T04:36:29.450Z,972.66
2018-06-05T04:37:29.389Z,972.65
2018-06-05T04:38:29.307Z,972.70
2018-06-05T04:39:29.243Z,972.68
2018-06-05T04:40:29.164Z,972.70
2018-06-05T04:41:29.090Z,972.70
2018-06-05T04:42:29.025Z,972.71
2018-06-05T04:43:28.955Z,972.72
2018-06-05T04:44:28.879Z,972.72
2018-06-05T04:45:28.805Z,972.68
2018-06-05T04:46:28.730Z,972.75
2018-06-05T04:47:28.691Z,972.73
2018-06-05T04:48:28.586Z,972.72
2018-06-05T04:49:28.513Z,972.75
2018-06-05T04:50:28.444Z,972.70
2018-06-05T04:51:28.372Z,972.71
2018-06-05T04:52:28.298Z,972.69
2018-06-05T04:53:28.228Z,972.66
2018-06-05T04:54:28.156Z,972.71
2018-06-05T04:55:28.081Z,972.73
2018-06-05T04:56:28.024Z,972.74
2018-06-05T04:57:27.943Z,972.79
2018-06-05T04:58:27.867Z,972.77
2018-06-05T04:59:27.795Z,972.77
2018-06-05T05:00:27.724Z,972.76
2018-06-05T05:01:27.650Z,972.78
2018-06-05T05:02:27.576Z,972.80
2018-06-05T05:03:27.554Z,972.79
2018-06-05T05:04:27.436Z,972.82
2018-06-05T05:05:27.363Z,972.81
2018-06-05T05:06:27.292Z,972.82
2018-06-05T05:07:27.222Z,972.83
2018-06-05T05:08:27.149Z,972.87
2018-06-05T05:09:27.078Z,972.86
2018-06-05T05:10:27.005Z,972.87
2018-06-05T05:11:26.932Z,972.89
2018-06-05T05:12:26.862Z,972.88
2018-06-05T05:13:26.800Z,972.83
2018-06-05T05:14:26.717Z,972.82
2018-06-05T05:15:26.643Z,972.78
2018-06-05T05:16:26.588Z,972.84
2018-06-05T05:17:26.510Z,972.82
2018-06-05T05:18:26.432Z,972.85
2018-06-05T05:19:26.359Z,972.89
2018-06-05T05:20:26.287Z,972.88
2018-06-05T05:21:26.262Z,972.89
2018-06-05T05:22:26.149Z,972.91
2018-06-05T05:23:26.073Z,972.97
2018-06-05T05:24:26.045Z,972.97
2018-06-05T05:25:25.941Z,972.93
2018-06-05T05:26:25.861Z,972.92
2018-06-05T05:27:25.868Z,972.95
2018-06-05T05:28:25.714Z,972.96
2018-06-05T05:29:25.642Z,972.95
2018-06-05T05:30:25.571Z,972.97
2018-06-05T05:31:25.498Z,973.00
2018-06-05T05:32:25.428Z,972.99
2018-06-05T05:33:25.454Z,972.99
2018-06-05T05:34:25.288Z,972.97
2018-06-05T05:35:25.216Z,972.97
2018-06-05T05:36:25.150Z,972.98
2018-06-05T05:37:25.089Z,972.96
2018-06-05T05:38:24.998Z,972.97
2018-06-05T05:39:24.929Z,972.99
2018-06-05T05:40:24.859Z,972.99
2018-06-05T05:41:24.792Z,972.99
2018-06-05T05:42:24.712Z,973.00
2018-06-05T05:43:24.669Z,973.04
2018-06-05T05:44:24.572Z,973.00
2018-06-05T05:45:24.504Z,973.00
2018-06-05T05:46:24.427Z,973.00
2018-06-05T05:47:24.358Z,972.98
2018-06-05T05:48:24.286Z,973.02
2018-06-05T05:49:24.216Z,972.99
2018-06-05T05:50:24.147Z,973.00
2018-06-05T05:51:24.073Z,973.03
2018-06-05T05:52:24.002Z,973.02
2018-06-05T05:53:23.934Z,973.07
2018-06-05T05:54:23.857Z,973.01
2018-06-05T05:55:23.789Z,973.02
2018-06-05T05:56:23.718Z,973.02
2018-06-05T05:57:23.645Z,973.06
2018-06-05T05:58:23.600Z,973.06
2018-06-05T05:59:23.504Z,973.04
2018-06-05T06:00:23.433Z,973.02
2018-06-05T06:01:23.364Z,973.01
2018-06-05T06:02:23.294Z,972.99
2018-06-05T06:03:23.221Z,972.99
2018-06-05T06:04:23.149Z,972.98
2018-06-05T06:05:23.079Z,973.01
2018-06-05T06:06:23.015Z,973.00
2018-06-05T06:07:22.937Z,973.00
2018-06-05T06:08:22.865Z,973.01
2018-06-05T06:09:22.796Z,972.99
2018-06-05T06:10:22.723Z,972.99
2018-06-05T06:11:22.654Z,973.02
2018-06-05T06:12:22.584Z,973.02
2018-06-05T06:13:22.514Z,972.99
2018-06-05T06:14:22.443Z,972.98
2018-06-05T06:15:22.368Z,972.98
2018-06-05T06:16:22.300Z,972.97
2018-06-05T06:17:22.228Z,972.97
2018-06-05T06:18:22.215Z,973.00
2018-06-05T06:19:22.094Z,973.03
2018-06-05T06:20:22.064Z,972.99
2018-06-05T06:21:21.949Z,972.99
2018-06-05T06:22:21.912Z,973.03
2018-06-05T06:23:21.855Z,973.03
2018-06-05T06:24:21.784Z,973.02
2018-06-05T06:25:21.717Z,973.03
2018-06-05T06:26:21.644Z,973.03
2018-06-05T06:27:21.518Z,973.00
2018-06-05T06:28:21.447Z,972.99
2018-06-05T06:29:21.385Z,972.99
2018-06-05T06:30:21.304Z,972.95
2018-06-05T06:31:21.236Z,972.96
2018-06-05T06:32:21.164Z,972.97
2018-06-05T06:33:21.094Z,972.98
2018-06-05T06:34:21.024Z,972.98
2018-06-05T06:35:20.954Z,972.97
2018-06-05T06:36:20.881Z,972.98
2018-06-05T06:37:20.814Z,973.00
2018-06-05T06:38:20.754Z,972.99
2018-06-05T06:39:20.670Z,973.01
2018-06-05T06:40:20.603Z,973.03
2018-06-05T06:41:20.529Z,973.05
2018-06-05T06:42:20.463Z,973.03
2018-06-05T06:43:20.402Z,973.03
2018-06-05T06:44:20.326Z,973.03
2018-06-05T06:45:20.251Z,973.08
2018-06-05T06:46:20.179Z,973.08
2018-06-05T06:47:20.109Z,973.06
2018-06-05T06:48:20.035Z,973.05
2018-06-05T06:49:19.965Z,973.05
2018-06-05T06:50:19.891Z,973.08
2018-06-05T06:51:19.826Z,973.07
2018-06-05T06:52:19.752Z,973.07
2018-06-05T06:53:19.687Z,973.08
2018-06-05T06:54:19.613Z,973.06
2018-06-05T06:55:19.549Z,973.07
2018-06-05T06:56:19.471Z,973.05
2018-06-05T06:57:19.416Z,973.09
2018-06-05T06:58:19.330Z,973.10
2018-06-05T06:59:19.263Z,973.07
2018-06-05T07:00:19.189Z,973.11
2018-06-05T07:01:19.133Z,973.10
2018-06-05T07:02:19.049Z,973.11
2018-06-05T07:03:18.987Z,973.11
2018-06-05T07:04:18.908Z,973.12
2018-06-05T07:05:18.838Z,973.13
2018-06-05T07:06:18.820Z,973.09
2018-06-05T07:07:18.698Z,973.09
2018-06-05T07:08:18.646Z,973.05
2018-06-05T07:09:18.557Z,973.11
2018-06-05T07:10:18.507Z,973.07
2018-06-05T07:11:18.416Z,973.07
2018-06-05T07:12:18.364Z,973.08
2018-06-05T07:13:18.276Z,973.05
2018-06-05T07:14:18.207Z,973.09
2018-06-05T07:15:18.137Z,973.09
2018-06-05T07:16:18.069Z,973.12
2018-06-05T07:17:18.007Z,973.09
2018-06-05T07:18:17.964Z,973.08
2018-06-05T07:19:17.873Z,973.09
2018-06-05T07:20:17.785Z,973.08
2018-06-05T07:21:17.720Z,973.06
2018-06-05T07:22:17.645Z,973.09
2018-06-05T07:23:17.577Z,973.09
2018-06-05T07:24:17.508Z,973.04
2018-06-05T07:25:17.463Z,973.06
2018-06-05T07:26:17.369Z,973.06
2018-06-05T07:27:17.298Z,973.04
2018-06-05T07:28:17.229Z,973.06
2018-06-05T07:29:17.200Z,973.05
2018-06-05T07:30:17.168Z,973.05
2018-06-05T07:31:17.016Z,973.01
2018-06-05T07:32:16.958Z,973.00
2018-06-05T07:33:16.879Z,973.01
2018-06-05T07:34:16.813Z,973.03
2018-06-05T07:35:16.737Z,973.02
2018-06-05T07:36:16.669Z,973.03
2018-06-05T07:37:16.601Z,973.02
2018-06-05T07:38:16.528Z,972.98
2018-06-05T07:39:16.466Z,973.00
2018-06-05T07:40:16.390Z,973.05
2018-06-05T07:41:16.322Z,973.00
2018-06-05T07:42:16.260Z,973.02
2018-06-05T07:43:16.184Z,973.01
2018-06-05T07:44:16.180Z,973.01
2018-06-05T07:45:16.052Z,972.98
2018-06-05T07:46:15.971Z,973.04
2018-06-05T07:47:15.921Z,973.01
2018-06-05T07:48:15.833Z,973.04
2018-06-05T07:49:15.765Z,973.05
2018-06-05T07:50:15.713Z,973.07
2018-06-05T07:51:15.633Z,973.06
2018-06-05T07:52:15.555Z,973.04
2018-06-05T07:53:15.485Z,973.05
2018-06-05T07:54:15.430Z,973.05
2018-06-05T07:55:15.400Z,973.04
2018-06-05T07:56:15.312Z,973.02
2018-06-05T07:57:15.207Z,973.00
2018-06-05T07:58:15.142Z,972.99
2018-06-05T07:59:15.082Z,973.02
2018-06-05T08:00:15.000Z,972.98
2018-06-05T08:01:14.947Z,973.00
2018-06-05T08:02:14.862Z,972.96
2018-06-05T08:03:14.790Z,973.00
2018-06-05T08:04:14.806Z,973.00
2018-06-05T08:05:14.652Z,972.99
2018-06-05T08:06:14.582Z,972.97
2018-06-05T08:07:14.518Z,972.98
2018-06-05T08:08:14.444Z,972.95
2018-06-05T08:09:14.379Z,972.95
2018-06-05T08:10:14.308Z,972.95
2018-06-05T08:11:14.237Z,972.93
2018-06-05T08:12:14.186Z,972.91
2018-06-05T08:13:14.100Z,972.93
2018-06-05T08:14:14.029Z,972.90
2018-06-05T08:15:13.961Z,972.90
2018-06-05T08:16:13.890Z,972.87
2018-06-05T08:17:13.821Z,972.86
2018-06-05T08:18:13.770Z,972.85
2018-06-05T08:19:13.685Z,972.84
2018-06-05T08:20:13.638Z,972.85
2018-06-05T08:21:13.547Z,972.86
2018-06-05T08:22:13.477Z,972.88
2018-06-05T08:23:13.419Z,972.88
2018-06-05T08:24:13.344Z,972.86
2018-06-05T08:25:13.268Z,972.86
2018-06-05T08:26:13.198Z,972.86
2018-06-05T08:27:13.129Z,972.86
2018-06-05T08:28:13.059Z,972.86
2018-06-05T08:29:13.029Z,972.89
2018-06-05T08:30:12.983Z,972.86
2018-06-05T08:31:12.855Z,972.87
2018-06-05T08:32:12.785Z,972.89
2018-06-05T08:33:12.717Z,972.89
2018-06-05T08:34:12.655Z,972.92
2018-06-05T08:35:12.584Z,972.92
2018-06-05T08:36:12.508Z,972.94
2018-06-05T08:37:12.440Z,972.93
2018-06-05T08:38:12.374Z,972.89
2018-06-05T08:39:12.304Z,972.90
2018-06-05T08:40:12.237Z,972.93
2018-06-05T08:41:12.171Z,972.91
2018-06-05T08:42:12.098Z,972.92
2018-06-05T08:43:12.040Z,972.91
2018-06-05T08:44:11.957Z,972.95
2018-06-05T08:45:11.946Z,972.96
2018-06-05T08:46:11.820Z,972.97
2018-06-05T08:47:11.757Z,972.95
2018-06-05T08:48:11.683Z,972.94
2018-06-05T08:49:11.613Z,972.95
2018-06-05T08:50:11.556Z,972.94
2018-06-05T08:51:11.476Z,972.96
2018-06-05T08:52:11.407Z,972.92
2018-06-05T08:53:11.344Z,972.93
2018-06-05T08:54:11.336Z,972.94
2018-06-05T08:55:11.201Z,972.92
2018-06-05T08:56:11.131Z,972.92
2018-06-05T08:57:11.062Z,972.92
2018-06-05T08:58:10.994Z,972.94
2018-06-05T08:59:10.944Z,972.88
2018-06-05T09:00:10.860Z,972.90
2018-06-05T09:01:10.789Z,972.84
2018-06-05T09:02:10.717Z,972.85
2018-06-05T09:03:10.651Z,972.86
2018-06-05T09:04:10.587Z,972.85
2018-06-05T09:05:10.517Z,972.85
2018-06-05T09:06:10.454Z,972.81
2018-06-05T09:07:10.375Z,972.88
2018-06-05T09:08:10.309Z,972.87
2018-06-05T09:09:10.239Z,972.84
2018-06-05T09:10:10.176Z,972.85
2018-06-05T09:11:10.102Z,972.83
2018-06-05T09:12:10.036Z,972.84
2018-06-05T09:13:09.964Z,972.90
2018-06-05T09:14:09.894Z,972.85
2018-06-05T09:15:09.826Z,972.89
2018-06-05T09:16:09.759Z,972.87
2018-06-05T09:17:09.689Z,972.88
2018-06-05T09:18:09.621Z,972.85
2018-06-05T09:19:09.552Z,972.83
2018-06-05T09:20:09.487Z,972.84
2018-06-05T09:21:09.423Z,972.85
2018-06-05T09:22:09.346Z,972.81
2018-06-05T09:23:09.280Z,972.88
2018-06-05T09:24:09.211Z,972.82
2018-06-05T09:25:09.142Z,972.85
2018-06-05T09:26:09.080Z,972.86
2018-06-05T09:27:09.009Z,972.85
2018-06-05T09:28:08.937Z,972.85
2018-06-05T09:29:08.884Z,972.80
2018-06-05T09:30:08.801Z,972.83
2018-06-05T09:31:08.731Z,972.85
2018-06-05T09:32:08.703Z,972.84
2018-06-05T09:33:08.670Z,972.87
2018-06-05T09:34:08.532Z,972.83
2018-06-05T09:35:08.460Z,972.84
2018-06-05T09:36:08.391Z,972.86
2018-06-05T09:37:08.321Z,972.85
2018-06-05T09:38:08.254Z,972.84
2018-06-05T09:39:08.190Z,972.85
2018-06-05T09:40:08.127Z,972.83
2018-06-05T09:41:08.053Z,972.88
2018-06-05T09:42:07.986Z,972.84
2018-06-05T09:43:07.914Z,972.87
2018-06-05T09:44:07.849Z,972.83
2018-06-05T09:45:07.781Z,972.83
2018-06-05T09:46:07.772Z,972.81
2018-06-05T09:47:07.648Z,972.86
2018-06-05T09:48:07.574Z,972.82
2018-06-05T09:49:07.511Z,972.81
2018-06-05T09:50:07.491Z,972.83
2018-06-05T09:51:07.373Z,972.80
2018-06-05T09:52:07.306Z,972.81
2018-06-05T09:53:07.274Z,972.81
2018-06-05T09:54:07.180Z,972.77
2018-06-05T09:55:07.102Z,972.79
2018-06-05T09:56:07.035Z,972.74
2018-06-05T09:57:06.975Z,972.76
2018-06-05T09:58:07.629Z,972.71
2018-06-05T09:59:06.836Z,972.71
2018-06-05T10:00:06.761Z,972.71
2018-06-05T10:01:06.698Z,972.64
2018-06-05T10:02:06.624Z,972.67
2018-06-05T10:03:06.557Z,972.65
2018-06-05T10:04:06.489Z,972.69
2018-06-05T10:05:06.497Z,972.69
2018-06-05T10:06:06.358Z,972.68
2018-06-05T10:07:06.286Z,972.72
2018-06-05T10:08:06.963Z,972.71
2018-06-05T10:09:06.985Z,972.73
2018-06-05T10:10:06.957Z,972.77
2018-06-05T10:11:06.019Z,972.75
2018-06-05T10:12:06.458Z,972.73
2018-06-05T10:13:05.881Z,972.75
2018-06-05T10:14:05.866Z,972.74
2018-06-05T10:15:06.460Z,972.74
2018-06-05T10:16:06.462Z,972.75
2018-06-05T10:17:05.611Z,972.72
2018-06-05T10:18:05.559Z,972.76
2018-06-05T10:19:06.458Z,972.75
2018-06-05T10:20:05.960Z,972.76
2018-06-05T10:21:05.345Z,972.76
2018-06-05T10:22:05.275Z,972.76
2018-06-05T10:23:05.960Z,972.76
2018-06-05T10:24:05.960Z,972.77
2018-06-05T10:25:05.074Z,972.75
2018-06-05T10:26:04.999Z,972.79
2018-06-05T10:27:04.932Z,972.74
2018-06-05T10:28:04.875Z,972.74
2018-06-05T10:29:04.804Z,972.74
2018-06-05T10:30:04.732Z,972.73
2018-06-05T10:31:04.665Z,972.75
2018-06-05T10:32:04.596Z,972.76
2018-06-05T10:33:04.529Z,972.75
2018-06-05T10:34:04.463Z,972.74
2018-06-05T10:35:04.396Z,972.73
2018-06-05T10:36:04.964Z,972.71
2018-06-05T10:37:04.259Z,972.69
2018-06-05T10:38:04.970Z,972.69
2018-06-05T10:39:04.965Z,972.71
2018-06-05T10:40:04.059Z,972.69
2018-06-05T10:41:04.966Z,972.72
2018-06-05T10:42:03.923Z,972.72
2018-06-05T10:43:03.855Z,972.70
2018-06-05T10:44:03.785Z,972.63
2018-06-05T10:45:04.470Z,972.60
2018-06-05T10:46:03.650Z,972.62
2018-06-05T10:47:04.469Z,972.66
2018-06-05T10:48:03.518Z,972.68
2018-06-05T10:49:03.967Z,972.68
2018-06-05T10:50:03.973Z,972.67
2018-06-05T10:51:04.469Z,972.68
2018-06-05T10:52:04.051Z,972.67
2018-06-05T10:53:03.192Z,972.65
2018-06-05T10:54:03.970Z,972.63
2018-06-05T10:55:03.047Z,972.63
2018-06-05T10:56:03.561Z,972.62
2018-06-05T10:57:02.921Z,972.57
2018-06-05T10:58:02.853Z,972.59
2018-06-05T10:59:03.476Z,972.60
2018-06-05T11:00:02.719Z,972.59
2018-06-05T11:01:03.480Z,972.60
2018-06-05T11:02:03.473Z,972.58
2018-06-05T11:03:03.973Z,972.54
2018-06-05T11:04:02.452Z,972.49
2018-06-05T11:05:02.973Z,972.50
2018-06-05T11:06:02.324Z,972.52
2018-06-05T11:07:02.245Z,972.53
2018-06-05T11:08:02.983Z,972.53
2018-06-05T11:09:02.118Z,972.53
2018-06-05T11:10:02.049Z,972.52
2018-06-05T11:11:02.975Z,972.51
2018-06-05T11:12:02.979Z,972.52
2018-06-05T11:13:01.867Z,972.48
2018-06-05T11:14:02.480Z,972.45
2018-06-05T11:15:01.720Z,972.46
2018-06-05T11:16:01.646Z,972.48
2018-06-05T11:17:02.477Z,972.46
2018-06-05T11:18:01.516Z,972.46
2018-06-05T11:19:01.982Z,972.48
2018-06-05T11:20:01.992Z,972.44
2018-06-05T11:21:01.322Z,972.47
2018-06-05T11:22:02.065Z,972.44
2018-06-05T11:23:01.185Z,972.46
2018-06-05T11:24:01.154Z,972.41
2018-06-05T11:25:01.070Z,972.40
2018-06-05T11:26:00.985Z,972.34
2018-06-05T11:27:01.486Z,972.35
2018-06-05T11:28:01.482Z,972.34
2018-06-05T11:29:00.799Z,972.35
2018-06-05T11:30:00.747Z,972.35
2018-06-05T11:31:01.567Z,972.30
2018-06-05T11:32:01.982Z,972.31
2018-06-05T11:33:00.521Z,972.31
2018-06-05T11:34:00.452Z,972.30
2018-06-05T11:35:00.389Z,972.31
2018-06-05T11:36:01.483Z,972.30
2018-06-05T11:37:00.257Z,972.28
2018-06-05T11:38:01.077Z,972.27
2018-06-05T11:39:00.125Z,972.29
2018-06-05T11:40:00.988Z,972.30
2018-06-05T11:41:00.488Z,972.31
2018-06-05T11:41:59.949Z,972.29
2018-06-05T11:42:59.860Z,972.34
2018-06-05T11:43:59.792Z,972.34
2018-06-05T11:45:00.491Z,972.31
2018-06-05T11:45:59.664Z,972.29
2018-06-05T11:46:59.677Z,972.27
2018-06-05T11:48:00.498Z,972.25
2018-06-05T11:48:59.463Z,972.23
2018-06-05T11:50:00.090Z,972.23
2018-06-05T11:50:59.332Z,972.27
2018-06-05T11:51:59.267Z,972.22
2018-06-05T11:52:59.998Z,972.21
2018-06-05T11:53:59.160Z,972.23
2018-06-05T11:54:59.132Z,972.21
2018-06-05T11:55:59.491Z,972.21
2018-06-05T11:56:59.504Z,972.21
2018-06-05T11:57:59.495Z,972.22
2018-06-05T11:58:58.813Z,972.23
2018-06-05T11:59:59.491Z,972.21
2018-06-05T12:00:58.679Z,972.21
2018-06-05T12:01:59.492Z,972.18
2018-06-05T12:02:59.491Z,972.20
2018-06-05T12:03:58.993Z,972.16
2018-06-05T12:04:58.414Z,972.19
2018-06-05T12:05:58.993Z,972.16
2018-06-05T12:06:58.290Z,972.17
2018-06-05T12:07:58.218Z,972.11
2018-06-05T12:08:58.152Z,972.06
2018-06-05T12:09:58.085Z,972.11
2018-06-05T12:10:58.049Z,972.10
2018-06-05T12:11:57.956Z,972.05
2018-06-05T12:12:57.894Z,972.04
2018-06-05T12:13:57.829Z,972.02
2018-06-05T12:14:57.762Z,971.97
2018-06-05T12:15:57.694Z,971.95
2018-06-05T12:16:57.652Z,971.94
2018-06-05T12:17:57.573Z,971.95
2018-06-05T12:18:57.497Z,971.92
2018-06-05T12:19:57.431Z,971.92
2018-06-05T12:20:57.375Z,971.91
2018-06-05T12:21:57.303Z,971.93
2018-06-05T12:22:57.238Z,971.89
2018-06-05T12:23:57.172Z,971.89
2018-06-05T12:24:57.110Z,971.88
2018-06-05T12:25:57.043Z,971.87
2018-06-05T12:26:57.058Z,971.88
2018-06-05T12:27:56.913Z,971.81